N72ME KBDR-KGHG
Flight info
| Callsign | N72ME |
|---|---|
| Flight time | 0h 43m |
| Altitude | 9000 |
| Route | MAD ORW WOONS2 |
| Aircraft | C404/L-SDFR/C |
Departure
| Time | 2026-05-09 02:58 |
|---|---|
| Airport | Igor I Sikorsky Memorial Airport (KBDR) |
Arrival
| Time | 2026-05-09 03:42 |
|---|---|
| Airport | Marshfield Municipal George Harlow Field (KGHG) |
| Time | Latitude | Longitude | Altitude | Speed | Heading |
|---|---|---|---|---|---|
| 2026-05-09 02:40 | 41.16304 | -73.12744 | 16 ft | 0 kts | 272° |
| 2026-05-09 02:55 | 41.16313 | -73.12746 | 16 ft | 3 kts | 66° |
| 2026-05-09 02:55 | 41.16311 | -73.12685 | 16 ft | 12 kts | 56° |
| 2026-05-09 02:56 | 41.16390 | -73.12571 | 16 ft | 21 kts | 62° |
| 2026-05-09 02:56 | 41.16431 | -73.12471 | 20 ft | 11 kts | 60° |
| 2026-05-09 02:56 | 41.16440 | -73.12450 | 14 ft | 0 kts | 59° |
| 2026-05-09 02:56 | 41.16443 | -73.12442 | 19 ft | 1 kts | 61° |
| 2026-05-09 02:57 | 41.16487 | -73.12318 | 21 ft | 19 kts | 89° |
| 2026-05-09 02:57 | 41.16498 | -73.12277 | 20 ft | 0 kts | 267° |
| 2026-05-09 02:57 | 41.16520 | -73.12500 | 22 ft | 50 kts | 278° |
| 2026-05-09 02:57 | 41.16583 | -73.13175 | 19 ft | 93 kts | 271° |
| 2026-05-09 02:58 | 41.16657 | -73.14112 | 214 ft | 106 kts | 276° |
| 2026-05-09 02:58 | 41.16796 | -73.15116 | 515 ft | 115 kts | 280° |
| 2026-05-09 02:58 | 41.16985 | -73.16147 | 930 ft | 111 kts | 285° |
| 2026-05-09 02:58 | 41.17200 | -73.17106 | 1229 ft | 107 kts | 281° |
| 2026-05-09 02:59 | 41.17340 | -73.18082 | 1477 ft | 109 kts | 278° |
| 2026-05-09 02:59 | 41.17481 | -73.19070 | 1747 ft | 108 kts | 280° |
| 2026-05-09 02:59 | 41.17608 | -73.20145 | 1813 ft | 129 kts | 277° |
| 2026-05-09 02:59 | 41.17730 | -73.21279 | 2254 ft | 112 kts | 277° |
| 2026-05-09 03:00 | 41.17835 | -73.22227 | 2667 ft | 99 kts | 284° |
| 2026-05-09 03:00 | 41.18356 | -73.22803 | 2850 ft | 108 kts | 341° |
| 2026-05-09 03:00 | 41.18847 | -73.22882 | 3000 ft | 110 kts | 2° |
| 2026-05-09 03:00 | 41.19672 | -73.22048 | 3253 ft | 122 kts | 65° |
| 2026-05-09 03:01 | 41.19891 | -73.20952 | 3499 ft | 123 kts | 71° |
| 2026-05-09 03:01 | 41.20141 | -73.19866 | 3746 ft | 124 kts | 71° |
| 2026-05-09 03:01 | 41.20382 | -73.18755 | 3967 ft | 128 kts | 71° |
| 2026-05-09 03:01 | 41.20633 | -73.17583 | 4164 ft | 135 kts | 72° |
| 2026-05-09 03:02 | 41.20901 | -73.16368 | 4371 ft | 139 kts | 71° |
| 2026-05-09 03:02 | 41.21087 | -73.15532 | 4536 ft | 141 kts | 71° |
| 2026-05-09 03:02 | 41.21370 | -73.14274 | 4767 ft | 144 kts | 71° |
| 2026-05-09 03:02 | 41.21659 | -73.12984 | 4991 ft | 147 kts | 71° |
| 2026-05-09 03:03 | 41.21951 | -73.11694 | 5225 ft | 149 kts | 71° |
| 2026-05-09 03:03 | 41.22250 | -73.10363 | 5443 ft | 153 kts | 71° |
| 2026-05-09 03:03 | 41.22556 | -73.08992 | 5665 ft | 157 kts | 71° |
| 2026-05-09 03:03 | 41.22872 | -73.07569 | 5849 ft | 163 kts | 72° |
| 2026-05-09 03:04 | 41.23201 | -73.06098 | 6044 ft | 169 kts | 72° |
| 2026-05-09 03:04 | 41.23538 | -73.04588 | 6253 ft | 172 kts | 72° |
| 2026-05-09 03:04 | 41.23880 | -73.03051 | 6472 ft | 174 kts | 72° |
| 2026-05-09 03:04 | 41.24228 | -73.01499 | 6701 ft | 176 kts | 71° |
| 2026-05-09 03:05 | 41.24581 | -72.99924 | 6946 ft | 178 kts | 71° |
| 2026-05-09 03:05 | 41.24937 | -72.98329 | 7131 ft | 183 kts | 71° |
| 2026-05-09 03:05 | 41.25303 | -72.96679 | 7292 ft | 188 kts | 71° |
| 2026-05-09 03:05 | 41.25677 | -72.95001 | 7481 ft | 191 kts | 70° |
| 2026-05-09 03:06 | 41.26059 | -72.93289 | 7669 ft | 194 kts | 70° |
| 2026-05-09 03:06 | 41.26446 | -72.91557 | 7851 ft | 196 kts | 70° |
| 2026-05-09 03:06 | 41.26831 | -72.89825 | 8037 ft | 198 kts | 70° |
| 2026-05-09 03:06 | 41.27225 | -72.88058 | 8222 ft | 199 kts | 70° |
| 2026-05-09 03:07 | 41.27618 | -72.86282 | 8403 ft | 201 kts | 70° |
| 2026-05-09 03:07 | 41.28015 | -72.84497 | 8601 ft | 202 kts | 70° |
| 2026-05-09 03:07 | 41.28413 | -72.82701 | 8795 ft | 203 kts | 70° |
| 2026-05-09 03:07 | 41.28814 | -72.80894 | 8986 ft | 204 kts | 70° |
| 2026-05-09 03:08 | 41.29223 | -72.79050 | 9029 ft | 214 kts | 70° |
| 2026-05-09 03:08 | 41.29633 | -72.77193 | 9029 ft | 222 kts | 70° |
| 2026-05-09 03:08 | 41.29958 | -72.75708 | 9026 ft | 226 kts | 70° |
| 2026-05-09 03:08 | 41.30403 | -72.73689 | 9028 ft | 228 kts | 70° |
| 2026-05-09 03:09 | 41.30843 | -72.71694 | 9024 ft | 227 kts | 70° |
| 2026-05-09 03:09 | 41.31289 | -72.69679 | 9023 ft | 227 kts | 69° |
| 2026-05-09 03:09 | 41.31897 | -72.67764 | 9018 ft | 224 kts | 58° |
| 2026-05-09 03:09 | 41.32575 | -72.65892 | 9023 ft | 225 kts | 59° |
| 2026-05-09 03:10 | 41.33238 | -72.64010 | 9024 ft | 225 kts | 59° |
| 2026-05-09 03:10 | 41.33901 | -72.62123 | 9026 ft | 225 kts | 59° |
| 2026-05-09 03:10 | 41.34568 | -72.60237 | 9022 ft | 226 kts | 59° |
| 2026-05-09 03:10 | 41.35234 | -72.58349 | 9027 ft | 225 kts | 59° |
| 2026-05-09 03:11 | 41.35903 | -72.56458 | 9027 ft | 226 kts | 59° |
| 2026-05-09 03:11 | 41.36568 | -72.54569 | 9027 ft | 225 kts | 59° |
| 2026-05-09 03:11 | 41.37233 | -72.52684 | 9027 ft | 225 kts | 59° |
| 2026-05-09 03:11 | 41.37896 | -72.50797 | 9027 ft | 225 kts | 59° |
| 2026-05-09 03:12 | 41.38562 | -72.48910 | 9027 ft | 225 kts | 59° |
| 2026-05-09 03:12 | 41.39226 | -72.47023 | 9026 ft | 225 kts | 59° |
| 2026-05-09 03:12 | 41.39887 | -72.45140 | 9026 ft | 224 kts | 59° |
| 2026-05-09 03:12 | 41.40547 | -72.43258 | 9026 ft | 224 kts | 59° |
| 2026-05-09 03:13 | 41.41869 | -72.39496 | 9027 ft | 225 kts | 59° |
| 2026-05-09 03:13 | 41.42530 | -72.37610 | 9027 ft | 225 kts | 59° |
| 2026-05-09 03:13 | 41.43191 | -72.35722 | 9024 ft | 225 kts | 59° |
| 2026-05-09 03:14 | 41.43850 | -72.33837 | 9024 ft | 224 kts | 59° |
| 2026-05-09 03:14 | 41.44501 | -72.31978 | 9019 ft | 225 kts | 59° |
| 2026-05-09 03:14 | 41.45163 | -72.30086 | 9018 ft | 225 kts | 59° |
| 2026-05-09 03:14 | 41.45822 | -72.28198 | 9019 ft | 224 kts | 59° |
| 2026-05-09 03:15 | 41.46481 | -72.26310 | 9013 ft | 225 kts | 59° |
| 2026-05-09 03:15 | 41.47143 | -72.24413 | 9016 ft | 225 kts | 58° |
| 2026-05-09 03:15 | 41.47803 | -72.22520 | 9017 ft | 225 kts | 58° |
| 2026-05-09 03:15 | 41.48463 | -72.20625 | 9007 ft | 224 kts | 58° |
| 2026-05-09 03:16 | 41.49122 | -72.18734 | 9011 ft | 225 kts | 58° |
| 2026-05-09 03:16 | 41.49773 | -72.16864 | 9012 ft | 225 kts | 59° |
| 2026-05-09 03:16 | 41.50430 | -72.14974 | 9009 ft | 224 kts | 58° |
| 2026-05-09 03:16 | 41.51083 | -72.13094 | 9014 ft | 224 kts | 58° |
| 2026-05-09 03:17 | 41.51741 | -72.11202 | 9016 ft | 225 kts | 58° |
| 2026-05-09 03:17 | 41.52398 | -72.09307 | 9016 ft | 225 kts | 58° |
| 2026-05-09 03:17 | 41.53055 | -72.07413 | 9016 ft | 225 kts | 58° |
| 2026-05-09 03:17 | 41.53710 | -72.05522 | 9014 ft | 224 kts | 58° |
| 2026-05-09 03:18 | 41.54365 | -72.03632 | 9017 ft | 225 kts | 59° |
| 2026-05-09 03:18 | 41.55021 | -72.01738 | 9016 ft | 225 kts | 59° |
| 2026-05-09 03:18 | 41.55732 | -71.99895 | 9010 ft | 219 kts | 44° |
| 2026-05-09 03:18 | 41.56792 | -71.98525 | 9014 ft | 211 kts | 32° |
| 2026-05-09 03:19 | 41.57870 | -71.97191 | 9017 ft | 212 kts | 33° |
| 2026-05-09 03:19 | 41.58945 | -71.95845 | 9020 ft | 212 kts | 33° |
| 2026-05-09 03:19 | 41.60023 | -71.94510 | 9023 ft | 211 kts | 32° |
| 2026-05-09 03:19 | 41.61100 | -71.93173 | 9024 ft | 211 kts | 32° |
| 2026-05-09 03:20 | 41.62163 | -71.91854 | 9023 ft | 211 kts | 32° |
| 2026-05-09 03:20 | 41.63243 | -71.90512 | 9023 ft | 212 kts | 32° |
| 2026-05-09 03:20 | 41.64323 | -71.89171 | 9024 ft | 211 kts | 32° |
| 2026-05-09 03:20 | 41.65402 | -71.87829 | 9022 ft | 211 kts | 32° |
| 2026-05-09 03:21 | 41.66480 | -71.86489 | 9019 ft | 211 kts | 32° |
| 2026-05-09 03:21 | 41.67558 | -71.85148 | 9021 ft | 212 kts | 32° |
| 2026-05-09 03:21 | 41.68637 | -71.83805 | 9019 ft | 211 kts | 32° |
| 2026-05-09 03:21 | 41.69709 | -71.82468 | 9019 ft | 210 kts | 32° |
| 2026-05-09 03:22 | 41.70779 | -71.81138 | 9018 ft | 210 kts | 32° |
| 2026-05-09 03:22 | 41.71846 | -71.79806 | 9019 ft | 210 kts | 32° |
| 2026-05-09 03:22 | 41.72912 | -71.78476 | 9017 ft | 209 kts | 32° |
| 2026-05-09 03:22 | 41.73978 | -71.77146 | 9016 ft | 209 kts | 32° |
| 2026-05-09 03:23 | 41.75041 | -71.75820 | 9016 ft | 208 kts | 32° |
| 2026-05-09 03:23 | 41.76087 | -71.74513 | 9024 ft | 208 kts | 32° |
| 2026-05-09 03:23 | 41.77108 | -71.73238 | 9025 ft | 208 kts | 32° |
| 2026-05-09 03:23 | 41.78181 | -71.71894 | 9028 ft | 209 kts | 32° |
| 2026-05-09 03:24 | 41.79232 | -71.70581 | 9025 ft | 209 kts | 32° |
| 2026-05-09 03:24 | 41.80292 | -71.69254 | 9027 ft | 208 kts | 32° |
| 2026-05-09 03:24 | 41.81355 | -71.67924 | 9027 ft | 208 kts | 32° |
| 2026-05-09 03:24 | 41.82413 | -71.66598 | 9029 ft | 209 kts | 32° |
| 2026-05-09 03:25 | 41.83474 | -71.65269 | 9029 ft | 208 kts | 32° |
| 2026-05-09 03:25 | 41.84533 | -71.63941 | 9031 ft | 208 kts | 32° |
| 2026-05-09 03:25 | 41.85591 | -71.62613 | 9031 ft | 208 kts | 32° |
| 2026-05-09 03:25 | 41.86647 | -71.61288 | 9034 ft | 208 kts | 32° |
| 2026-05-09 03:26 | 41.87705 | -71.59961 | 9030 ft | 208 kts | 32° |
| 2026-05-09 03:26 | 41.88763 | -71.58630 | 9030 ft | 208 kts | 32° |
| 2026-05-09 03:26 | 41.89818 | -71.57304 | 9029 ft | 208 kts | 32° |
| 2026-05-09 03:26 | 41.90876 | -71.55977 | 9036 ft | 207 kts | 32° |
| 2026-05-09 03:27 | 41.91929 | -71.54650 | 9037 ft | 207 kts | 32° |
| 2026-05-09 03:27 | 41.92970 | -71.53340 | 9036 ft | 208 kts | 32° |
| 2026-05-09 03:27 | 41.94032 | -71.52004 | 8949 ft | 212 kts | 32° |
| 2026-05-09 03:27 | 41.95036 | -71.50473 | 8730 ft | 231 kts | 54° |
| 2026-05-09 03:28 | 41.95504 | -71.48337 | 8531 ft | 242 kts | 72° |
| 2026-05-09 03:28 | 41.95879 | -71.46125 | 8361 ft | 242 kts | 72° |
| 2026-05-09 03:28 | 41.96275 | -71.43923 | 8201 ft | 242 kts | 71° |
| 2026-05-09 03:28 | 41.96694 | -71.41738 | 8043 ft | 240 kts | 64° |
| 2026-05-09 03:29 | 41.97594 | -71.39945 | 7843 ft | 231 kts | 45° |
| 2026-05-09 03:29 | 41.98144 | -71.37865 | 7639 ft | 246 kts | 85° |
| 2026-05-09 03:29 | 41.97935 | -71.35573 | 7488 ft | 246 kts | 98° |
| 2026-05-09 03:29 | 41.97777 | -71.33301 | 7333 ft | 243 kts | 89° |
| 2026-05-09 03:30 | 41.97798 | -71.31039 | 7182 ft | 241 kts | 86° |
| 2026-05-09 03:30 | 41.97831 | -71.28792 | 7020 ft | 240 kts | 87° |
| 2026-05-09 03:30 | 41.97827 | -71.26558 | 6866 ft | 239 kts | 88° |
| 2026-05-09 03:30 | 41.97816 | -71.24356 | 6704 ft | 238 kts | 88° |
| 2026-05-09 03:31 | 41.97812 | -71.22142 | 6549 ft | 237 kts | 88° |
| 2026-05-09 03:31 | 41.97809 | -71.19932 | 6388 ft | 236 kts | 88° |
| 2026-05-09 03:31 | 41.97804 | -71.17734 | 6227 ft | 234 kts | 88° |
| 2026-05-09 03:31 | 41.97799 | -71.15550 | 6064 ft | 233 kts | 89° |
| 2026-05-09 03:32 | 41.97793 | -71.13378 | 5908 ft | 232 kts | 89° |
| 2026-05-09 03:32 | 41.97786 | -71.11216 | 5750 ft | 231 kts | 89° |
| 2026-05-09 03:32 | 41.97780 | -71.09065 | 5591 ft | 230 kts | 89° |
| 2026-05-09 03:32 | 41.97774 | -71.06923 | 5445 ft | 229 kts | 89° |
| 2026-05-09 03:33 | 41.97767 | -71.04793 | 5289 ft | 228 kts | 89° |
| 2026-05-09 03:33 | 41.97758 | -71.02665 | 5135 ft | 227 kts | 89° |
| 2026-05-09 03:33 | 41.97752 | -71.00548 | 4987 ft | 226 kts | 89° |
| 2026-05-09 03:33 | 41.97743 | -70.98445 | 4839 ft | 225 kts | 90° |
| 2026-05-09 03:34 | 41.97734 | -70.96379 | 4669 ft | 217 kts | 90° |
| 2026-05-09 03:34 | 41.97724 | -70.94381 | 4479 ft | 211 kts | 90° |
| 2026-05-09 03:34 | 41.97717 | -70.92447 | 4289 ft | 208 kts | 90° |
| 2026-05-09 03:34 | 41.97710 | -70.90515 | 4092 ft | 206 kts | 90° |
| 2026-05-09 03:35 | 41.97700 | -70.88601 | 3887 ft | 204 kts | 90° |
| 2026-05-09 03:35 | 41.97691 | -70.86709 | 3697 ft | 201 kts | 90° |
| 2026-05-09 03:35 | 41.97725 | -70.84839 | 3506 ft | 199 kts | 80° |
| 2026-05-09 03:35 | 41.98316 | -70.83202 | 3292 ft | 189 kts | 47° |
| 2026-05-09 03:36 | 41.99186 | -70.81985 | 3049 ft | 174 kts | 42° |
| 2026-05-09 03:36 | 42.00016 | -70.80845 | 2792 ft | 167 kts | 42° |
| 2026-05-09 03:36 | 42.00785 | -70.79775 | 2602 ft | 150 kts | 43° |
| 2026-05-09 03:36 | 42.01493 | -70.78797 | 2406 ft | 143 kts | 42° |
| 2026-05-09 03:37 | 42.02164 | -70.77866 | 2245 ft | 133 kts | 42° |
| 2026-05-09 03:37 | 42.02764 | -70.77034 | 1992 ft | 119 kts | 41° |
| 2026-05-09 03:37 | 42.03333 | -70.76255 | 1706 ft | 115 kts | 41° |
| 2026-05-09 03:37 | 42.03886 | -70.75487 | 1414 ft | 113 kts | 42° |
| 2026-05-09 03:38 | 42.04426 | -70.74748 | 1226 ft | 107 kts | 41° |
| 2026-05-09 03:38 | 42.04913 | -70.74039 | 1160 ft | 102 kts | 42° |
| 2026-05-09 03:38 | 42.05417 | -70.73352 | 1068 ft | 109 kts | 41° |
| 2026-05-09 03:38 | 42.05961 | -70.72564 | 1077 ft | 119 kts | 44° |
| 2026-05-09 03:39 | 42.06553 | -70.71743 | 1007 ft | 126 kts | 43° |
| 2026-05-09 03:39 | 42.06709 | -70.71525 | 1033 ft | 123 kts | 44° |
| 2026-05-09 03:40 | 42.06879 | -70.71286 | 991 ft | 126 kts | 44° |
| 2026-05-09 03:40 | 42.07494 | -70.70437 | 822 ft | 123 kts | 43° |
| 2026-05-09 03:41 | 42.08064 | -70.69668 | 571 ft | 111 kts | 45° |
| 2026-05-09 03:41 | 42.08589 | -70.68933 | 315 ft | 105 kts | 45° |
| 2026-05-09 03:41 | 42.09076 | -70.68247 | 140 ft | 98 kts | 45° |
| 2026-05-09 03:41 | 42.09537 | -70.67606 | 14 ft | 87 kts | 46° |
| 2026-05-09 03:42 | 42.09819 | -70.67210 | 7 ft | 16 kts | 50° |
| 2026-05-09 03:42 | 42.09865 | -70.67189 | 7 ft | 4 kts | 333° |
| 2026-05-09 03:42 | 42.09884 | -70.67212 | 8 ft | 3 kts | 316° |
| 2026-05-09 03:42 | 42.09890 | -70.67221 | 8 ft | 0 kts | 300° |
| 2026-05-09 03:43 | 42.09885 | -70.67241 | 8 ft | 6 kts | 229° |
| 2026-05-09 03:43 | 42.09858 | -70.67281 | 8 ft | 6 kts | 235° |
| 2026-05-09 03:43 | 42.09857 | -70.67286 | 8 ft | 0 kts | 270° |
| 2026-05-09 03:43 | 42.09864 | -70.67312 | 8 ft | 0 kts | 312° |